Watertown International Airport
KART : rendu visible

Aérodrome :











RETROUVEZ-NOUS SUR...

 
LOGIN :

S'inscrire | Disclaimer

   EN    FR    IT 

 









Légende :    VFR   VFR Marginal   IFR   IFR Intensif   IFR Très Intensif
Visi : 
Plafond : 
>= 8 km
>= 3000ft
5 à 8 km
1000 à 3000 ft
1500m à 5 km
500 à 1000 ft
800 à 1500m
200 à 500 ft
< 800m
< 200 ft
Symboles :   Orages  Brouillard  Fortes neiges  Fortes précipitations  Vent > 20 kt






- Altitude de l'aérodrome : 325 ft
- Code IATA : ART


KART - Watertown International

DERNIER METAR :
  • 250356Z AUTO 07004KT 10SM BKN060 03/M04 A3014 RMK AO2 SLP212 T00281039

METARs EXPIRÉS :
  • 250256Z AUTO 00000KT 10SM CLR 01/M03 A3016 RMK AO2 SLP216 T00111033 58013
  • 250156Z AUTO 05003KT 10SM FEW120 01/M03 A3017 RMK AO2 SLP223 T00111028

TAF KART
Valide du 25 à 03h jusqu'au 26 à 00h UTC


250314Z 2503/2524 06006KT P6SM SCT035 SCT100 OVC200
FM250500 10006KT P6SM BKN100
FM250800 10006KT P6SM BKN100 WS015/16035KT
FM251200 09006KT P6SM VCSH SCT050 OVC100 WS020/15035KT
FM251500 08008KT 6SM -RA SCT035 BKN050
FM251800 08010KT 6SM -RA OVC015



MET'MAP, la Météo Aéronautique d'un coup d'oeil ! - Copyright ORBIFLY Décembre 2007 - Disclaimer

ORBIFLY MET'MAP TEAM :

Programmation & Développement : Alexandra Zaïnal
Sur une idée originale de : Baudouin d'Aumeries
Assistance à la programmation : Marc-Olivier Méhu
Soutien technique & logistique : Manuel Goepfert

Contact : metmap@orbifly.com




SOURCES & CREDITS :

   NOAA       Earth
Advisory